createdAt,value
2019-05-23T00:01:45.677Z,9.25
2019-05-23T00:04:13.717Z,9.22
2019-05-23T00:06:40.963Z,9.22
2019-05-23T00:09:09.173Z,9.18
2019-05-23T00:11:39.850Z,9.17
2019-05-23T00:14:19.753Z,9.13
2019-05-23T00:16:47.408Z,9.10
2019-05-23T00:19:13.652Z,9.07
2019-05-23T00:21:42.109Z,9.03
2019-05-23T00:24:08.188Z,8.98
2019-05-23T00:26:35.561Z,8.95
2019-05-23T00:29:10.009Z,8.94
2019-05-23T00:31:48.895Z,8.92
2019-05-23T00:34:17.438Z,8.91
2019-05-23T00:36:44.393Z,8.88
2019-05-23T00:39:11.165Z,8.86
2019-05-23T00:41:39.438Z,8.85
2019-05-23T00:44:07.670Z,8.82
2019-05-23T00:46:34.015Z,8.81
2019-05-23T00:49:00.867Z,8.79
2019-05-23T00:51:29.211Z,8.76
2019-05-23T00:53:56.351Z,8.75
2019-05-23T00:56:23.011Z,8.73
2019-05-23T00:58:49.734Z,8.71
2019-05-23T01:01:16.407Z,8.71
2019-05-23T01:03:42.993Z,8.70
2019-05-23T01:06:09.970Z,8.67
2019-05-23T01:08:36.521Z,8.64
2019-05-23T01:11:03.563Z,8.63
2019-05-23T01:13:30.242Z,8.61
2019-05-23T01:15:56.800Z,8.58
2019-05-23T01:18:24.888Z,8.56
2019-05-23T01:20:58.540Z,8.56
2019-05-23T01:23:26.772Z,8.54
2019-05-23T01:25:53.608Z,8.51
2019-05-23T01:28:20.119Z,8.50
2019-05-23T01:30:48.291Z,6.94
2019-05-23T01:33:16.525Z,8.46
2019-05-23T01:35:44.366Z,8.44
2019-05-23T01:38:11.747Z,8.42
2019-05-23T01:40:40.348Z,8.41
2019-05-23T01:43:07.493Z,8.39
2019-05-23T01:45:35.533Z,8.37
2019-05-23T01:48:03.465Z,8.37
2019-05-23T01:50:29.714Z,8.32
2019-05-23T01:52:56.069Z,8.25
2019-05-23T01:55:23.920Z,7.84
2019-05-23T01:57:52.280Z,8.16
2019-05-23T02:00:21.047Z,8.12
2019-05-23T02:02:48.316Z,8.11
2019-05-23T02:05:14.771Z,8.08
2019-05-23T02:07:41.133Z,8.07
2019-05-23T02:10:10.574Z,8.08
2019-05-23T02:12:37.147Z,8.06
2019-05-23T02:15:05.674Z,8.06
2019-05-23T02:17:33.022Z,8.03
2019-05-23T02:20:01.015Z,8.01
2019-05-23T02:22:27.384Z,7.98
2019-05-23T02:24:56.106Z,6.37
2019-05-23T02:27:22.727Z,7.85
2019-05-23T02:29:48.876Z,7.80
2019-05-23T02:32:15.587Z,7.77
2019-05-23T02:34:43.283Z,7.72
2019-05-23T02:37:22.960Z,7.68
2019-05-23T02:39:53.537Z,7.63
2019-05-23T02:42:30.235Z,7.56
2019-05-23T02:44:56.982Z,7.54
2019-05-23T02:47:25.114Z,7.49
2019-05-23T02:49:53.839Z,7.45
2019-05-23T02:52:27.228Z,7.41
2019-05-23T02:54:54.114Z,7.36
2019-05-23T02:57:22.778Z,7.30
2019-05-23T02:59:52.429Z,7.26
2019-05-23T03:02:36.048Z,7.21
2019-05-23T03:05:03.662Z,7.14
2019-05-23T03:07:32.406Z,7.10
2019-05-23T03:09:59.111Z,7.08
2019-05-23T03:12:27.191Z,7.04
2019-05-23T03:14:53.614Z,5.42
2019-05-23T03:17:23.012Z,7.01
2019-05-23T03:19:51.091Z,5.34
2019-05-23T03:22:37.406Z,6.96
2019-05-23T03:25:13.130Z,6.94
2019-05-23T03:27:42.289Z,6.91
2019-05-23T03:30:11.847Z,6.91
2019-05-23T03:32:46.071Z,6.91
2019-05-23T03:35:20.472Z,6.92
2019-05-23T03:37:47.622Z,6.93
2019-05-23T03:40:14.740Z,6.95
2019-05-23T03:42:44.717Z,6.96
2019-05-23T03:45:12.822Z,6.98
2019-05-23T03:47:39.153Z,7.00
2019-05-23T03:50:07.235Z,7.03
2019-05-23T03:52:35.438Z,7.06
2019-05-23T03:55:07.027Z,7.10
2019-05-23T03:57:34.210Z,7.15
2019-05-23T04:00:01.391Z,7.18
2019-05-23T04:02:28.035Z,7.21
2019-05-23T04:04:55.435Z,7.25
2019-05-23T04:07:21.961Z,7.28
2019-05-23T04:09:49.501Z,7.31
2019-05-23T04:12:15.916Z,7.35
2019-05-23T04:14:42.472Z,7.38
2019-05-23T04:17:09.187Z,7.41
2019-05-23T04:19:35.915Z,7.46
2019-05-23T04:22:02.828Z,7.49
2019-05-23T04:24:29.338Z,7.50
2019-05-23T04:26:56.190Z,7.52
2019-05-23T04:29:22.271Z,7.54
2019-05-23T04:32:05.919Z,7.57
2019-05-23T04:34:16.649Z,7.61
2019-05-23T04:36:43.010Z,7.64
2019-05-23T04:39:09.210Z,7.67
2019-05-23T04:41:36.561Z,7.72
2019-05-23T04:44:03.944Z,7.43
2019-05-23T04:46:29.984Z,7.79
2019-05-23T04:48:57.624Z,7.83
2019-05-23T04:51:24.214Z,7.89
2019-05-23T04:53:51.046Z,7.91
2019-05-23T04:56:17.692Z,7.97
2019-05-23T04:58:45.513Z,8.00
2019-05-23T05:01:12.410Z,8.05
2019-05-23T05:03:39.546Z,8.12
2019-05-23T05:06:06.299Z,8.15
2019-05-23T05:08:32.369Z,8.21
2019-05-23T05:10:59.675Z,8.26
2019-05-23T05:13:27.094Z,8.31
2019-05-23T05:15:53.149Z,8.35
2019-05-23T05:18:19.699Z,8.43
2019-05-23T05:20:46.006Z,8.47
2019-05-23T05:23:12.252Z,8.54
2019-05-23T05:25:39.760Z,8.59
2019-05-23T05:28:06.066Z,8.66
2019-05-23T05:30:32.810Z,8.74
2019-05-23T05:32:59.602Z,8.79
2019-05-23T05:35:28.340Z,8.87
2019-05-23T05:37:54.669Z,8.91
2019-05-23T05:40:21.586Z,8.96
2019-05-23T05:42:48.504Z,9.04
2019-05-23T05:45:15.873Z,9.10
2019-05-23T05:47:42.496Z,9.15
2019-05-23T05:50:10.305Z,9.21
2019-05-23T05:52:37.518Z,9.26
2019-05-23T05:55:05.223Z,9.34
2019-05-23T05:57:31.318Z,9.43
2019-05-23T05:59:57.869Z,9.50
2019-05-23T06:02:26.262Z,9.58
2019-05-23T06:04:52.937Z,9.69
2019-05-23T06:07:34.183Z,9.78
2019-05-23T06:10:05.237Z,9.87
2019-05-23T06:12:32.752Z,9.97
2019-05-23T06:14:59.602Z,10.06
2019-05-23T06:17:26.565Z,10.11
2019-05-23T06:19:53.098Z,10.24
2019-05-23T06:22:19.826Z,10.31
2019-05-23T06:24:51.946Z,10.42
2019-05-23T06:27:17.493Z,10.48
2019-05-23T06:29:43.623Z,10.55
2019-05-23T06:32:11.575Z,10.67
2019-05-23T06:34:38.009Z,10.75
2019-05-23T06:37:06.124Z,10.89
2019-05-23T06:39:32.734Z,11.03
2019-05-23T06:41:59.037Z,11.13
2019-05-23T06:44:25.635Z,11.26
2019-05-23T06:46:53.003Z,11.40
2019-05-23T06:49:19.252Z,11.55
2019-05-23T06:51:45.656Z,11.76
2019-05-23T06:54:12.428Z,11.89
2019-05-23T06:56:39.348Z,12.02
2019-05-23T06:59:05.473Z,12.19
2019-05-23T07:01:32.376Z,12.36
2019-05-23T07:03:59.282Z,12.47
2019-05-23T07:06:25.701Z,12.62
2019-05-23T07:08:52.326Z,12.81
2019-05-23T07:11:18.815Z,13.11
2019-05-23T07:13:46.013Z,13.51
2019-05-23T07:16:12.851Z,13.91
2019-05-23T07:18:39.135Z,14.40
2019-05-23T07:21:06.430Z,14.98
2019-05-23T07:23:32.766Z,15.32
2019-05-23T07:25:59.200Z,15.63
2019-05-23T07:28:25.211Z,15.93
2019-05-23T07:30:51.835Z,16.02
2019-05-23T07:33:18.150Z,16.25
2019-05-23T07:35:44.627Z,16.41
2019-05-23T07:38:11.623Z,16.75
2019-05-23T07:40:38.744Z,17.00
2019-05-23T07:43:06.215Z,17.11
2019-05-23T07:45:50.234Z,17.11
2019-05-23T07:48:17.467Z,17.08
2019-05-23T07:50:44.505Z,17.27
2019-05-23T07:53:12.608Z,16.81
2019-05-23T07:55:51.464Z,17.85
2019-05-23T07:58:18.521Z,17.94
2019-05-23T08:00:47.517Z,18.02
2019-05-23T08:03:14.350Z,18.08
2019-05-23T08:05:42.659Z,17.96
2019-05-23T08:08:10.964Z,17.88
2019-05-23T08:10:37.547Z,16.71
2019-05-23T08:13:04.662Z,17.99
2019-05-23T08:15:32.181Z,18.18
2019-05-23T08:17:58.670Z,18.34
2019-05-23T08:20:26.168Z,18.63
2019-05-23T08:22:53.213Z,18.96
2019-05-23T08:25:19.695Z,18.99
2019-05-23T08:27:46.595Z,19.13
2019-05-23T08:30:14.050Z,19.30
2019-05-23T08:32:40.626Z,19.33
2019-05-23T08:35:09.746Z,19.29
2019-05-23T08:37:36.266Z,19.23
2019-05-23T08:40:04.136Z,19.36
2019-05-23T08:42:34.277Z,19.44
2019-05-23T08:45:01.671Z,19.53
2019-05-23T08:47:28.558Z,19.49
2019-05-23T08:49:55.786Z,19.33
2019-05-23T08:52:22.180Z,19.24
2019-05-23T08:54:53.236Z,18.02
2019-05-23T08:57:20.483Z,19.39
2019-05-23T08:59:48.734Z,19.81
2019-05-23T09:02:16.346Z,20.23
2019-05-23T09:05:02.680Z,20.50
2019-05-23T09:07:14.058Z,20.89
2019-05-23T09:09:41.351Z,19.98
2019-05-23T09:12:11.006Z,21.24
2019-05-23T09:14:38.541Z,21.15
2019-05-23T09:17:06.346Z,20.46
2019-05-23T09:19:32.818Z,21.42
2019-05-23T09:21:59.544Z,21.78
2019-05-23T09:24:26.155Z,22.00
2019-05-23T09:26:52.764Z,21.80
2019-05-23T09:29:19.374Z,21.39
2019-05-23T09:31:48.975Z,21.33
2019-05-23T09:34:16.528Z,21.55
2019-05-23T09:36:43.004Z,21.77
2019-05-23T09:39:12.298Z,21.73
2019-05-23T09:41:40.825Z,21.67
2019-05-23T09:44:10.303Z,21.47
2019-05-23T09:46:38.593Z,21.32
2019-05-23T09:49:11.462Z,21.15
2019-05-23T09:51:40.024Z,20.96
2019-05-23T09:54:08.216Z,20.86
2019-05-23T09:56:34.479Z,21.02
2019-05-23T09:59:00.927Z,21.28
2019-05-23T10:01:27.581Z,21.37
2019-05-23T10:03:54.178Z,21.32
2019-05-23T10:06:20.885Z,21.13
2019-05-23T10:08:47.706Z,20.99
2019-05-23T10:11:17.211Z,20.96
2019-05-23T10:13:45.491Z,20.99
2019-05-23T10:16:12.126Z,21.31
2019-05-23T10:18:41.206Z,21.52
2019-05-23T10:21:07.624Z,21.54
2019-05-23T10:23:37.479Z,21.82
2019-05-23T10:26:05.048Z,22.19
2019-05-23T10:28:36.931Z,22.42
2019-05-23T10:31:06.611Z,22.83
2019-05-23T10:33:34.565Z,23.09
2019-05-23T10:36:04.712Z,23.46
2019-05-23T10:38:31.162Z,23.77
2019-05-23T10:40:58.379Z,23.72
2019-05-23T10:43:25.202Z,23.79
2019-05-23T10:45:56.244Z,23.74
2019-05-23T10:48:23.419Z,23.61
2019-05-23T10:50:50.023Z,23.29
2019-05-23T10:53:17.701Z,23.24
2019-05-23T10:55:45.548Z,22.42
2019-05-23T10:58:12.648Z,23.17
2019-05-23T11:00:40.525Z,23.10
2019-05-23T11:03:08.566Z,22.99
2019-05-23T11:05:35.100Z,22.96
2019-05-23T11:08:03.672Z,23.20
2019-05-23T11:10:33.227Z,23.38
2019-05-23T11:15:34.441Z,23.26
2019-05-23T11:18:01.348Z,23.36
2019-05-23T11:20:35.847Z,23.76
2019-05-23T11:23:03.710Z,24.35
2019-05-23T11:25:34.117Z,24.62
2019-05-23T11:28:05.193Z,24.63
2019-05-23T11:30:33.806Z,24.41
2019-05-23T11:33:00.405Z,23.96
2019-05-23T11:35:27.482Z,23.48
2019-05-23T11:37:54.681Z,23.48
2019-05-23T11:40:22.156Z,24.00
2019-05-23T11:42:48.385Z,24.47
2019-05-23T11:45:15.885Z,24.60
2019-05-23T11:47:43.709Z,24.77
2019-05-23T11:50:15.203Z,24.71
2019-05-23T11:52:42.421Z,23.48
2019-05-23T11:55:09.297Z,23.49
2019-05-23T11:57:38.307Z,24.50
2019-05-23T12:00:10.856Z,24.31
2019-05-23T12:02:45.205Z,24.30
2019-05-23T12:05:14.055Z,24.27
2019-05-23T12:07:40.998Z,24.41
2019-05-23T12:10:08.943Z,24.97
2019-05-23T12:12:36.937Z,24.59
2019-05-23T12:15:07.781Z,26.14
2019-05-23T12:17:34.064Z,26.00
2019-05-23T12:20:00.181Z,25.87
2019-05-23T12:22:28.240Z,25.93
2019-05-23T12:24:54.942Z,25.82
2019-05-23T12:27:22.261Z,25.84
2019-05-23T12:29:48.621Z,25.99
2019-05-23T12:32:15.510Z,25.01
2019-05-23T12:34:42.020Z,26.41
2019-05-23T12:37:19.704Z,26.84
2019-05-23T12:39:38.488Z,27.02
2019-05-23T12:42:06.480Z,27.18
2019-05-23T12:44:34.137Z,27.02
2019-05-23T12:47:04.422Z,27.06
2019-05-23T12:49:36.644Z,25.71
2019-05-23T12:52:05.557Z,26.68
2019-05-23T12:54:33.428Z,26.86
2019-05-23T12:57:00.010Z,27.17
2019-05-23T12:59:28.749Z,26.95
2019-05-23T13:01:57.265Z,25.34
2019-05-23T13:04:24.459Z,25.84
2019-05-23T13:06:51.194Z,25.34
2019-05-23T13:09:25.784Z,25.04
2019-05-23T13:11:55.999Z,24.98
2019-05-23T13:14:22.568Z,25.33
2019-05-23T13:16:49.739Z,25.72
2019-05-23T13:19:16.808Z,25.95
2019-05-23T13:21:45.395Z,26.10
2019-05-23T13:24:12.208Z,25.81
2019-05-23T13:26:39.923Z,26.32
2019-05-23T13:29:10.214Z,26.22
2019-05-23T13:31:37.388Z,26.37
2019-05-23T13:34:05.910Z,26.21
2019-05-23T13:36:33.932Z,25.78
2019-05-23T13:39:04.943Z,25.61
2019-05-23T13:41:32.589Z,25.69
2019-05-23T13:43:59.191Z,25.71
2019-05-23T13:46:25.727Z,25.58
2019-05-23T13:48:52.420Z,25.25
2019-05-23T13:51:23.575Z,24.98
2019-05-23T13:53:55.242Z,23.75
2019-05-23T13:56:35.021Z,24.56
2019-05-23T13:59:03.089Z,23.76
2019-05-23T14:01:29.916Z,24.77
2019-05-23T14:03:58.250Z,24.49
2019-05-23T14:06:25.407Z,24.56
2019-05-23T14:08:51.879Z,24.83
2019-05-23T14:11:19.508Z,24.99
2019-05-23T14:13:47.353Z,25.03
2019-05-23T14:16:14.590Z,24.95
2019-05-23T14:18:40.854Z,24.94
2019-05-23T14:21:08.708Z,24.84
2019-05-23T14:23:35.505Z,24.66
2019-05-23T14:26:03.021Z,24.60
2019-05-23T14:28:32.615Z,24.50
2019-05-23T14:31:12.727Z,24.40
2019-05-23T14:33:41.317Z,24.08
2019-05-23T14:36:10.535Z,23.97
2019-05-23T14:38:37.260Z,23.78
2019-05-23T14:41:03.715Z,23.53
2019-05-23T14:43:30.513Z,23.45
2019-05-23T14:46:08.308Z,23.44
2019-05-23T14:48:51.374Z,23.31
2019-05-23T14:51:22.947Z,23.28
2019-05-23T14:54:02.230Z,23.39
2019-05-23T14:56:32.497Z,23.46
2019-05-23T14:58:59.199Z,23.70
2019-05-23T15:01:28.306Z,23.84
2019-05-23T15:03:56.686Z,23.90
2019-05-23T15:06:24.027Z,24.03
2019-05-23T15:08:51.976Z,23.98
2019-05-23T15:11:20.744Z,23.96
2019-05-23T15:13:47.418Z,24.14
2019-05-23T15:16:15.324Z,24.35
2019-05-23T15:18:44.401Z,24.47
2019-05-23T15:21:11.271Z,24.36
2019-05-23T15:23:40.437Z,24.24
2019-05-23T15:26:22.220Z,24.10
2019-05-23T15:28:38.546Z,24.16
2019-05-23T15:31:06.632Z,24.13
2019-05-23T15:33:36.843Z,23.98
2019-05-23T15:36:09.537Z,22.79
2019-05-23T15:38:41.425Z,23.87
2019-05-23T15:41:08.971Z,23.78
2019-05-23T15:43:38.412Z,23.69
2019-05-23T15:46:09.184Z,23.58
2019-05-23T15:48:39.026Z,23.53
2019-05-23T15:51:08.274Z,23.58
2019-05-23T15:53:50.936Z,23.53
2019-05-23T15:56:28.225Z,23.52
2019-05-23T15:58:56.241Z,23.43
2019-05-23T16:01:41.219Z,23.34
2019-05-23T16:04:10.935Z,23.29
2019-05-23T16:06:39.518Z,23.29
2019-05-23T16:09:25.525Z,23.30
2019-05-23T16:11:39.494Z,23.30
2019-05-23T16:14:06.701Z,23.26
2019-05-23T16:16:34.094Z,23.14
2019-05-23T16:19:01.276Z,23.19
2019-05-23T16:21:30.483Z,23.39
2019-05-23T16:23:58.675Z,23.47
2019-05-23T16:26:25.367Z,23.47
2019-05-23T16:28:56.764Z,23.49
2019-05-23T16:31:25.265Z,23.45
2019-05-23T16:33:52.867Z,23.38
2019-05-23T16:36:20.649Z,23.30
2019-05-23T16:38:47.089Z,23.15
2019-05-23T16:41:15.994Z,23.12
2019-05-23T16:43:43.903Z,23.03
2019-05-23T16:46:11.864Z,22.99
2019-05-23T16:48:38.850Z,22.98
2019-05-23T16:51:08.093Z,22.91
2019-05-23T16:53:36.575Z,22.78
2019-05-23T16:56:21.100Z,22.58
2019-05-23T16:58:49.480Z,22.40
2019-05-23T17:01:24.262Z,22.37
2019-05-23T17:03:57.818Z,22.33
2019-05-23T17:06:44.435Z,22.37
2019-05-23T17:09:32.242Z,22.33
2019-05-23T17:12:16.602Z,22.33
2019-05-23T17:14:45.310Z,21.29
2019-05-23T17:17:15.901Z,22.33
2019-05-23T17:19:56.257Z,22.29
2019-05-23T17:22:41.002Z,22.24
2019-05-23T17:25:21.326Z,22.12
2019-05-23T17:28:06.062Z,22.04
2019-05-23T17:30:37.206Z,21.89
2019-05-23T17:33:05.193Z,21.81
2019-05-23T17:35:32.164Z,21.81
2019-05-23T17:37:58.378Z,21.70
2019-05-23T17:40:25.795Z,21.54
2019-05-23T17:42:52.247Z,21.47
2019-05-23T17:45:20.836Z,21.46
2019-05-23T17:47:47.272Z,21.46
2019-05-23T17:50:13.839Z,21.44
2019-05-23T17:52:41.099Z,21.41
2019-05-23T17:55:09.487Z,21.38
2019-05-23T17:57:35.980Z,21.34
2019-05-23T18:00:06.603Z,21.37
2019-05-23T18:02:36.521Z,20.23
2019-05-23T18:05:07.073Z,21.45
2019-05-23T18:07:34.052Z,21.47
2019-05-23T18:10:04.513Z,21.47
2019-05-23T18:12:31.456Z,21.47
2019-05-23T18:14:59.690Z,21.44
2019-05-23T18:17:27.654Z,21.37
2019-05-23T18:19:54.946Z,21.30
2019-05-23T18:22:22.192Z,21.27
2019-05-23T18:24:51.086Z,21.20
2019-05-23T18:27:19.594Z,21.12
2019-05-23T18:29:46.969Z,21.02
2019-05-23T18:32:15.698Z,20.94
2019-05-23T18:34:42.807Z,19.70
2019-05-23T18:37:09.982Z,20.72
2019-05-23T18:39:37.531Z,20.57
2019-05-23T18:42:04.808Z,20.42
2019-05-23T18:44:31.697Z,20.26
2019-05-23T18:47:00.283Z,20.14
2019-05-23T18:49:27.828Z,20.04
2019-05-23T18:51:56.521Z,19.93
2019-05-23T18:54:25.377Z,19.84
2019-05-23T18:56:52.170Z,19.72
2019-05-23T18:59:20.502Z,19.60
2019-05-23T19:01:46.818Z,19.49
2019-05-23T19:04:13.800Z,19.38
2019-05-23T19:06:40.541Z,19.24
2019-05-23T19:09:09.635Z,19.14
2019-05-23T19:11:36.397Z,19.03
2019-05-23T19:14:03.337Z,18.91
2019-05-23T19:16:30.468Z,18.77
2019-05-23T19:18:57.175Z,18.67
2019-05-23T19:21:24.704Z,18.56
2019-05-23T19:23:51.143Z,18.47
2019-05-23T19:26:17.550Z,18.40
2019-05-23T19:28:43.926Z,18.33
2019-05-23T19:31:10.536Z,18.26
2019-05-23T19:33:37.502Z,18.18
2019-05-23T19:36:04.968Z,18.10
2019-05-23T19:38:31.966Z,17.99
2019-05-23T19:40:58.498Z,17.91
2019-05-23T19:43:25.122Z,17.82
2019-05-23T19:45:52.023Z,17.71
2019-05-23T19:48:18.578Z,17.63
2019-05-23T19:50:45.391Z,17.55
2019-05-23T19:53:13.227Z,17.46
2019-05-23T19:55:40.632Z,17.38
2019-05-23T19:58:07.565Z,17.32
2019-05-23T20:00:33.977Z,17.21
2019-05-23T20:03:03.872Z,17.13
2019-05-23T20:05:42.852Z,17.05
2019-05-23T20:08:09.429Z,16.96
2019-05-23T20:10:37.629Z,16.87
2019-05-23T20:13:04.399Z,16.81
2019-05-23T20:15:31.893Z,16.78
2019-05-23T20:18:03.980Z,16.74
2019-05-23T20:20:41.696Z,16.67
2019-05-23T20:23:10.909Z,16.62
2019-05-23T20:25:37.945Z,16.52
2019-05-23T20:28:05.475Z,16.46
2019-05-23T20:30:45.751Z,16.45
2019-05-23T20:33:14.854Z,16.43
2019-05-23T20:35:41.440Z,16.42
2019-05-23T20:38:07.773Z,16.41
2019-05-23T20:40:34.730Z,16.40
2019-05-23T20:43:02.660Z,16.41
2019-05-23T20:45:29.555Z,16.40
2019-05-23T20:47:56.344Z,16.32
2019-05-23T20:50:22.982Z,16.25
2019-05-23T20:52:49.855Z,16.18
2019-05-23T20:55:16.325Z,16.14
2019-05-23T20:57:43.213Z,16.07
2019-05-23T21:00:12.456Z,16.04
2019-05-23T21:02:39.728Z,15.94
2019-05-23T21:05:06.069Z,15.85
2019-05-23T21:07:32.961Z,15.81
2019-05-23T21:09:59.861Z,15.79
2019-05-23T21:12:29.953Z,15.71
2019-05-23T21:14:55.651Z,15.63
2019-05-23T21:17:23.764Z,15.60
2019-05-23T21:19:51.090Z,14.13
2019-05-23T21:22:18.307Z,15.54
2019-05-23T21:24:47.071Z,15.51
2019-05-23T21:27:15.921Z,15.49
2019-05-23T21:29:42.812Z,15.43
2019-05-23T21:32:12.501Z,15.36
2019-05-23T21:34:40.637Z,15.28
2019-05-23T21:37:06.857Z,15.25
2019-05-23T21:39:34.026Z,15.20
2019-05-23T21:42:01.444Z,15.13
2019-05-23T21:44:28.357Z,15.05
2019-05-23T21:46:54.988Z,14.97
2019-05-23T21:49:21.389Z,14.92
2019-05-23T21:51:47.783Z,14.87
2019-05-23T21:54:14.523Z,14.82
2019-05-23T21:56:41.156Z,14.74
2019-05-23T21:59:07.187Z,14.68
2019-05-23T22:01:37.820Z,14.62
2019-05-23T22:04:09.062Z,14.56
2019-05-23T22:06:37.251Z,14.49
2019-05-23T22:09:08.704Z,14.43
2019-05-23T22:11:37.986Z,14.40
2019-05-23T22:14:05.116Z,14.38
2019-05-23T22:16:32.158Z,14.34
2019-05-23T22:18:58.635Z,14.28
2019-05-23T22:21:25.724Z,14.25
2019-05-23T22:23:51.981Z,14.20
2019-05-23T22:26:18.489Z,14.16
2019-05-23T22:28:44.746Z,14.10
2019-05-23T22:31:11.086Z,14.09
2019-05-23T22:33:52.059Z,14.07
2019-05-23T22:36:20.120Z,14.03
2019-05-23T22:38:46.575Z,13.99
2019-05-23T22:41:13.178Z,13.95
2019-05-23T22:43:39.253Z,13.88
2019-05-23T22:46:05.917Z,13.82
2019-05-23T22:48:32.698Z,13.78
2019-05-23T22:50:59.057Z,13.74
2019-05-23T22:53:25.849Z,12.36
2019-05-23T22:55:52.376Z,13.71
2019-05-23T22:58:18.539Z,13.68
2019-05-23T23:00:46.808Z,13.65
2019-05-23T23:03:13.309Z,13.63
2019-05-23T23:05:40.035Z,13.59
2019-05-23T23:08:06.639Z,13.54
2019-05-23T23:10:33.188Z,13.51
2019-05-23T23:12:59.511Z,13.48
2019-05-23T23:15:27.600Z,13.46
2019-05-23T23:17:54.282Z,13.43
2019-05-23T23:20:21.166Z,13.39
2019-05-23T23:22:47.483Z,13.35
2019-05-23T23:25:15.631Z,13.31
2019-05-23T23:27:41.707Z,13.27
2019-05-23T23:30:10.355Z,13.17
2019-05-23T23:32:37.500Z,13.12
2019-05-23T23:35:04.734Z,13.06
2019-05-23T23:37:31.761Z,13.00
2019-05-23T23:39:57.945Z,12.97
2019-05-23T23:42:24.030Z,12.89
2019-05-23T23:44:49.993Z,12.84
2019-05-23T23:47:34.968Z,12.82
2019-05-23T23:50:19.921Z,12.53
2019-05-23T23:53:04.515Z,12.74
2019-05-23T23:55:49.820Z,12.69
2019-05-23T23:58:15.867Z,12.66
